Terminal Aerodrome Forecast
Issued by NWS

Home | Current Version | Previous Version | Text Only | Print | Product List | Glossary On
Versions: 1 2 3 4 5 6 7 8 9 10 11 12 13 14 15
000
FTUS44 KLIX 282300
TAFMCB
TAF
KMCB 282332Z 0100/0124 08004KT P6SM FEW080
     FM010500 10004KT 5SM BR FEW010 BKN080
      TEMPO 0109/0113 2SM BR BKN010 BKN070
     FM011400 12007KT P6SM OVC008
     FM011700 13005KT P6SM OVC015=

USA.gov is the U.S. government's official web portal to all federal, state and local government web resources and services.